Time;durP1;ratioP1;P1;durP2;ratioP2;P2;SDS_P1;SDS_P2;PMS_P1;PMS_P2;Temp;Humidity;BMP_temperature;BMP_pressure;BME280_temperature;BME280_humidity;BME280_pressure;Samples;Min_cycle;Max_cycle;Signal;HPM_P1;HPM_P2
2023/01/19 00:00:50;;;;;;;;;;;4.60;99.90;;;;;;5030762;28;20292;-74
2023/01/19 00:03:16;;;;;;;;;;;3.00;99.90;;;;;;5013392;28;19953;-74
2023/01/19 00:05:42;;;;;;;;;;;2.90;99.90;;;;;;5030585;28;20016;-75
2023/01/19 00:08:14;;;;;;;;;;;4.60;99.90;;;;;;5031396;28;20345;-75
2023/01/19 00:10:43;;;;;;;;;;;2.90;99.90;;;;;;5031646;28;19975;-75
2023/01/19 00:13:09;;;;;;;;;;;2.80;99.90;;;;;;5013439;28;19952;-75
2023/01/19 00:15:35;;;;;;;;;;;2.70;99.90;;;;;;5012191;28;19969;-76
2023/01/19 00:18:00;;;;;;;;;;;2.80;99.90;;;;;;5014043;28;19971;-75
2023/01/19 00:20:26;;;;;;;;;;;4.40;99.90;;;;;;5031448;28;19982;-75
2023/01/19 00:22:51;;;;;;;;;;;2.80;99.90;;;;;;5030940;28;19927;-75
2023/01/19 00:25:17;;;;;;;;;;;2.70;99.90;;;;;;5031629;28;19963;-75
2023/01/19 00:27:48;;;;;;;;;;;2.80;99.90;;;;;;5030998;28;20013;-76
2023/01/19 00:30:14;;;;;;;;;;;4.60;99.90;;;;;;5013032;28;19921;-75
2023/01/19 00:32:40;;;;;;;;;;;2.90;99.90;;;;;;5031503;28;19924;-75
2023/01/19 00:35:06;;;;;;;;;;;2.90;99.90;;;;;;5032537;28;20407;-74
2023/01/19 00:37:31;;;;;;;;;;;3.00;99.90;;;;;;5011981;28;19965;-75
2023/01/19 00:40:00;;;;;;;;;;;5.20;99.90;;;;;;5027547;28;19924;-74
2023/01/19 00:42:43;;;;;;;;;;;3.10;99.90;;;;;;5029236;28;19929;-74
2023/01/19 00:45:10;;;;;;;;;;;4.50;99.90;;;;;;5018108;28;20008;-75
2023/01/19 00:47:36;;;;;;;;;;;3.10;99.90;;;;;;5031332;28;19943;-74
2023/01/19 00:50:01;;;;;;;;;;;3.20;99.90;;;;;;5034143;28;20443;-74
2023/01/19 00:52:31;;;;;;;;;;;3.30;99.90;;;;;;5016610;28;19921;-75
2023/01/19 00:54:56;;;;;;;;;;;3.30;99.90;;;;;;5033741;28;19960;-75
2023/01/19 00:57:22;;;;;;;;;;;3.60;99.90;;;;;;5016185;28;19952;-74
2023/01/19 00:59:48;;;;;;;;;;;3.40;99.90;;;;;;5034751;28;20036;-74
2023/01/19 01:02:14;;;;;;;;;;;5.00;99.90;;;;;;5034935;28;20364;-74
2023/01/19 01:04:39;;;;;;;;;;;3.40;99.90;;;;;;5033986;28;19929;-74
2023/01/19 01:07:05;;;;;;;;;;;3.50;99.90;;;;;;5035054;28;19925;-75
2023/01/19 01:09:31;;;;;;;;;;;3.40;99.90;;;;;;5034252;28;19979;-73
2023/01/19 01:11:56;;;;;;;;;;;3.50;99.90;;;;;;5034087;28;19921;-73
2023/01/19 01:14:22;;;;;;;;;;;3.50;99.90;;;;;;5013228;28;19932;-74
2023/01/19 01:16:48;;;;;;;;;;;3.50;99.90;;;;;;5034530;28;19928;-74
2023/01/19 01:19:13;;;;;;;;;;;3.50;99.90;;;;;;5015580;28;19929;-74
2023/01/19 01:21:42;;;;;;;;;;;3.50;99.90;;;;;;5034222;28;19921;-74
2023/01/19 01:24:08;;;;;;;;;;;3.50;99.90;;;;;;5034846;28;19968;-74
2023/01/19 01:26:36;;;;;;;;;;;3.50;99.90;;;;;;5033181;28;19974;-74
2023/01/19 01:29:03;;;;;;;;;;;3.50;99.90;;;;;;5015965;28;20032;-74
2023/01/19 01:31:29;;;;;;;;;;;4.50;99.90;;;;;;5028981;28;19982;-74
2023/01/19 01:33:58;;;;;;;;;;;3.50;99.90;;;;;;5014847;28;19925;-75
2023/01/19 01:36:23;;;;;;;;;;;3.50;99.90;;;;;;5026113;28;19955;-75
2023/01/19 01:38:52;;;;;;;;;;;3.50;99.90;;;;;;5034435;28;19921;-74
2023/01/19 01:41:17;;;;;;;;;;;4.70;99.90;;;;;;5014325;28;19928;-75
2023/01/19 01:43:52;;;;;;;;;;;3.60;99.90;;;;;;5028121;28;19928;-74
2023/01/19 01:46:18;;;;;;;;;;;3.50;99.90;;;;;;5012512;28;19921;-74
2023/01/19 01:49:04;;;;;;;;;;;3.80;99.90;;;;;;5033796;28;19921;-74
2023/01/19 01:51:33;;;;;;;;;;;3.50;99.90;;;;;;5033353;28;19925;-74
2023/01/19 01:54:01;;;;;;;;;;;3.50;99.90;;;;;;5033253;28;20399;-73
2023/01/19 01:56:31;;;;;;;;;;;4.10;99.90;;;;;;5015095;28;19965;-74
2023/01/19 01:58:57;;;;;;;;;;;3.50;99.90;;;;;;5033712;28;19921;-75
2023/01/19 02:04:06;;;;;;;;;;;5.00;99.90;;;;;;5029685;28;19921;-75
2023/01/19 02:06:33;;;;;;;;;;;3.40;99.90;;;;;;5033614;28;19921;-75
2023/01/19 02:14:36;;;;;;;;;;;4.40;99.90;;;;;;5025785;28;20015;-74
2023/01/19 02:17:01;;;;;;;;;;;4.60;99.90;;;;;;5033214;28;19999;-73
2023/01/19 02:19:32;;;;;;;;;;;3.20;99.90;;;;;;5015230;28;19971;-74
2023/01/19 02:22:14;;;;;;;;;;;4.20;99.90;;;;;;5032387;28;19921;-74
2023/01/19 02:24:40;;;;;;;;;;;3.30;99.90;;;;;;5030314;28;19917;-72
2023/01/19 02:27:06;;;;;;;;;;;4.70;99.90;;;;;;5033353;28;20024;-73
2023/01/19 02:29:32;;;;;;;;;;;3.40;99.90;;;;;;5032425;28;19921;-74
2023/01/19 02:31:58;;;;;;;;;;;3.80;99.90;;;;;;5033314;28;19952;-75
2023/01/19 02:34:24;;;;;;;;;;;4.60;99.90;;;;;;5032696;28;20855;-74
2023/01/19 02:36:56;;;;;;;;;;;3.70;99.90;;;;;;5015077;28;19928;-74
2023/01/19 02:39:25;;;;;;;;;;;3.80;99.90;;;;;;5014953;28;20031;-74
2023/01/19 02:41:53;;;;;;;;;;;3.90;99.90;;;;;;5032763;28;19924;-74
2023/01/19 02:44:20;;;;;;;;;;;4.20;99.90;;;;;;5013707;28;20360;-73
2023/01/19 02:46:46;;;;;;;;;;;3.80;99.90;;;;;;5013182;28;19948;-73
2023/01/19 02:49:12;;;;;;;;;;;5.20;99.90;;;;;;5031884;28;19947;-74
2023/01/19 02:51:42;;;;;;;;;;;3.80;99.90;;;;;;5032461;28;19958;-75
2023/01/19 02:54:25;;;;;;;;;;;5.50;99.90;;;;;;5014518;28;20011;-74
2023/01/19 02:56:57;;;;;;;;;;;3.80;99.90;;;;;;5032198;28;19982;-74
2023/01/19 02:59:46;;;;;;;;;;;3.80;99.90;;;;;;5013544;28;19998;-73
2023/01/19 03:02:21;;;;;;;;;;;3.80;99.90;;;;;;5030531;28;19921;-74
2023/01/19 03:04:47;;;;;;;;;;;5.70;99.90;;;;;;5031860;28;19928;-74
2023/01/19 03:07:21;;;;;;;;;;;3.70;99.90;;;;;;5014290;28;19921;-74
2023/01/19 03:10:06;;;;;;;;;;;3.80;99.90;;;;;;5014769;28;19964;-75
2023/01/19 03:12:45;;;;;;;;;;;3.80;99.90;;;;;;5028493;28;19925;-75
2023/01/19 03:15:22;;;;;;;;;;;3.80;99.90;;;;;;5032053;28;20066;-74
2023/01/19 03:17:48;;;;;;;;;;;3.80;99.90;;;;;;5013416;28;19927;-74
2023/01/19 03:20:17;;;;;;;;;;;3.90;99.90;;;;;;5014371;28;20028;-74
2023/01/19 03:22:44;;;;;;;;;;;3.90;99.90;;;;;;5014972;28;19921;-74
2023/01/19 03:25:11;;;;;;;;;;;3.90;99.90;;;;;;5031374;28;19921;-74
2023/01/19 03:27:39;;;;;;;;;;;5.70;99.90;;;;;;5028621;28;19931;-74
2023/01/19 03:30:10;;;;;;;;;;;3.90;99.90;;;;;;5008032;28;19933;-75
2023/01/19 03:32:41;;;;;;;;;;;4.00;99.90;;;;;;5027009;28;19921;-75
2023/01/19 03:35:10;;;;;;;;;;;4.10;99.90;;;;;;5028877;28;20304;-75
2023/01/19 03:37:37;;;;;;;;;;;4.10;99.90;;;;;;5032096;28;20008;-75
2023/01/19 03:40:03;;;;;;;;;;;4.30;99.90;;;;;;5031278;28;19920;-75
2023/01/19 03:42:29;;;;;;;;;;;4.10;99.90;;;;;;5031368;28;19987;-75
2023/01/19 03:44:56;;;;;;;;;;;4.10;99.90;;;;;;5032015;28;20000;-75
2023/01/19 03:47:22;;;;;;;;;;;4.60;99.90;;;;;;5013415;28;19952;-74
2023/01/19 03:49:48;;;;;;;;;;;4.10;99.90;;;;;;5031607;28;19973;-74
2023/01/19 03:52:14;;;;;;;;;;;4.10;99.90;;;;;;5013702;28;19937;-75
2023/01/19 03:54:40;;;;;;;;;;;5.10;99.90;;;;;;5030919;28;19917;-74
2023/01/19 03:57:05;;;;;;;;;;;4.20;99.90;;;;;;5031138;28;19947;-73
2023/01/19 03:59:31;;;;;;;;;;;5.50;99.90;;;;;;5031760;28;20015;-74
2023/01/19 04:01:56;;;;;;;;;;;4.60;99.90;;;;;;5010258;28;20369;-74
2023/01/19 04:04:24;;;;;;;;;;;4.20;99.90;;;;;;5031304;28;20394;-74
2023/01/19 04:06:49;;;;;;;;;;;4.20;99.90;;;;;;5030712;28;20389;-74
2023/01/19 04:09:15;;;;;;;;;;;4.30;99.90;;;;;;5013666;28;19971;-74
2023/01/19 04:11:41;;;;;;;;;;;5.80;99.90;;;;;;5031650;28;20395;-74
2023/01/19 04:14:06;;;;;;;;;;;4.20;99.90;;;;;;5031347;28;19983;-74
2023/01/19 04:16:32;;;;;;;;;;;4.70;99.90;;;;;;5013245;28;20380;-74
2023/01/19 04:18:57;;;;;;;;;;;4.30;99.90;;;;;;5031392;28;19944;-74
2023/01/19 04:21:23;;;;;;;;;;;6.00;99.90;;;;;;5013489;28;20341;-74
2023/01/19 04:23:48;;;;;;;;;;;4.20;99.90;;;;;;5031261;28;19921;-73
2023/01/19 04:26:14;;;;;;;;;;;4.10;99.90;;;;;;5031487;28;19963;-74
2023/01/19 04:28:39;;;;;;;;;;;3.90;99.90;;;;;;5012794;28;20020;-73
2023/01/19 04:31:05;;;;;;;;;;;4.80;99.90;;;;;;5031605;28;19932;-74
2023/01/19 04:33:31;;;;;;;;;;;5.60;99.90;;;;;;5013700;28;19971;-74
2023/01/19 04:35:56;;;;;;;;;;;4.00;99.90;;;;;;5029840;28;19932;-74
2023/01/19 04:38:25;;;;;;;;;;;4.30;99.90;;;;;;5031101;28;19989;-75
2023/01/19 04:40:51;;;;;;;;;;;3.90;99.90;;;;;;5030223;28;19979;-73
2023/01/19 04:43:18;;;;;;;;;;;3.90;99.90;;;;;;5021213;28;20335;-75
2023/01/19 04:45:44;;;;;;;;;;;3.80;99.90;;;;;;5025043;28;20276;-73
2023/01/19 04:48:10;;;;;;;;;;;4.40;99.90;;;;;;5027464;28;19975;-74
2023/01/19 04:50:36;;;;;;;;;;;3.90;99.90;;;;;;5030284;28;20004;-74
2023/01/19 04:53:01;;;;;;;;;;;3.70;99.90;;;;;;5031228;28;19964;-73
2023/01/19 04:55:27;;;;;;;;;;;3.70;99.90;;;;;;5012708;28;19956;-74
2023/01/19 04:57:53;;;;;;;;;;;4.60;99.90;;;;;;5030830;28;19947;-74
2023/01/19 05:00:19;;;;;;;;;;;5.20;99.90;;;;;;5013511;28;19947;-74
2023/01/19 05:02:45;;;;;;;;;;;3.60;99.90;;;;;;5013996;28;20372;-75
2023/01/19 05:05:13;;;;;;;;;;;5.50;99.90;;;;;;5029866;28;19920;-73
2023/01/19 05:07:39;;;;;;;;;;;3.50;99.90;;;;;;5030870;28;19991;-74
2023/01/19 05:10:05;;;;;;;;;;;4.10;99.90;;;;;;5013186;28;19921;-74
2023/01/19 05:12:31;;;;;;;;;;;3.50;99.90;;;;;;5013489;28;19931;-75
2023/01/19 05:14:57;;;;;;;;;;;6.10;99.90;;;;;;5030557;28;19921;-74
2023/01/19 05:17:22;;;;;;;;;;;3.60;99.90;;;;;;5015969;28;20054;-74
2023/01/19 05:19:48;;;;;;;;;;;4.00;99.90;;;;;;5034442;28;19921;-74
2023/01/19 05:22:14;;;;;;;;;;;5.20;99.90;;;;;;5034465;28;20304;-74
2023/01/19 05:24:39;;;;;;;;;;;4.30;99.90;;;;;;5033566;28;19921;-74
2023/01/19 05:27:05;;;;;;;;;;;3.50;99.90;;;;;;5036941;28;20273;-73
2023/01/19 05:29:30;;;;;;;;;;;3.70;99.90;;;;;;5030904;28;20338;-74
2023/01/19 05:31:56;;;;;;;;;;;3.80;99.90;;;;;;5033553;28;19928;-73
2023/01/19 05:34:22;;;;;;;;;;;3.80;99.90;;;;;;5034176;28;19921;-74
2023/01/19 05:36:51;;;;;;;;;;;5.50;99.90;;;;;;5034260;28;19921;-74
2023/01/19 05:39:29;;;;;;;;;;;3.80;99.90;;;;;;5024284;28;20387;-74
2023/01/19 05:41:54;;;;;;;;;;;3.80;99.90;;;;;;5028059;28;19925;-74
2023/01/19 05:44:21;;;;;;;;;;;3.80;99.90;;;;;;5032712;28;19936;-73
2023/01/19 05:46:46;;;;;;;;;;;6.10;99.90;;;;;;5032970;28;19966;-74
2023/01/19 05:49:12;;;;;;;;;;;3.80;99.90;;;;;;5033721;28;19928;-73
2023/01/19 05:51:39;;;;;;;;;;;5.30;99.90;;;;;;5027697;28;20488;-73
2023/01/19 05:54:04;;;;;;;;;;;3.90;99.90;;;;;;5012699;28;19921;-82
2023/01/19 05:56:30;;;;;;;;;;;5.10;99.90;;;;;;5034193;28;20265;-80
2023/01/19 05:58:56;;;;;;;;;;;4.10;99.90;;;;;;5013844;28;20011;-86
2023/01/19 06:01:27;;;;;;;;;;;4.20;99.90;;;;;;5027687;28;19964;-75
2023/01/19 06:03:53;;;;;;;;;;;5.20;99.90;;;;;;5033611;28;20348;-74
2023/01/19 06:06:19;;;;;;;;;;;4.10;99.90;;;;;;5027038;28;19968;-74
2023/01/19 06:08:45;;;;;;;;;;;5.60;99.90;;;;;;5029985;28;20391;-84
2023/01/19 06:11:10;;;;;;;;;;;4.10;99.90;;;;;;5025426;28;19925;-75
2023/01/19 06:13:38;;;;;;;;;;;4.00;99.90;;;;;;5007468;28;20346;-82
2023/01/19 06:16:04;;;;;;;;;;;4.00;99.90;;;;;;5030486;28;19924;-82
2023/01/19 06:18:30;;;;;;;;;;;4.00;99.90;;;;;;5013717;28;20372;-75
2023/01/19 06:20:57;;;;;;;;;;;3.90;99.90;;;;;;5030840;28;19928;-82
2023/01/19 06:23:28;;;;;;;;;;;5.20;99.90;;;;;;5015231;28;19960;-74
2023/01/19 06:25:53;;;;;;;;;;;3.80;99.90;;;;;;5012075;28;20293;-73
2023/01/19 06:28:19;;;;;;;;;;;3.80;99.90;;;;;;5010889;28;19992;-74
2023/01/19 06:30:51;;;;;;;;;;;3.70;99.90;;;;;;5014537;28;20814;-78
2023/01/19 06:33:17;;;;;;;;;;;3.70;99.90;;;;;;5013596;28;19929;-77
2023/01/19 06:35:43;;;;;;;;;;;3.70;99.90;;;;;;5032186;28;19927;-82
2023/01/19 06:38:09;;;;;;;;;;;3.50;99.90;;;;;;5033104;28;19921;-77
2023/01/19 06:40:35;;;;;;;;;;;3.80;99.90;;;;;;5011669;28;20016;-75
2023/01/19 06:43:00;;;;;;;;;;;6.00;99.90;;;;;;5029015;28;19925;-76
2023/01/19 06:45:26;;;;;;;;;;;4.20;99.90;;;;;;5013043;28;20011;-71
2023/01/19 06:47:51;;;;;;;;;;;6.00;99.90;;;;;;5030832;28;19960;-72
2023/01/19 06:50:17;;;;;;;;;;;6.00;99.90;;;;;;5031562;28;19928;-73
2023/01/19 06:52:42;;;;;;;;;;;4.00;99.90;;;;;;5009257;28;19925;-74
2023/01/19 06:55:09;;;;;;;;;;;4.00;99.90;;;;;;5029625;28;20307;-73
2023/01/19 06:57:39;;;;;;;;;;;4.00;99.90;;;;;;5007132;28;19972;-74
2023/01/19 07:00:08;;;;;;;;;;;4.00;99.90;;;;;;5009531;28;20028;-74
2023/01/19 07:02:41;;;;;;;;;;;4.10;99.90;;;;;;5024658;28;20180;-71
2023/01/19 07:05:08;;;;;;;;;;;4.10;99.90;;;;;;5028887;28;19967;-72
2023/01/19 07:07:33;;;;;;;;;;;4.10;99.90;;;;;;5031442;28;20460;-71
2023/01/19 07:09:59;;;;;;;;;;;4.50;99.90;;;;;;5012013;28;20396;-71
2023/01/19 07:12:25;;;;;;;;;;;4.60;99.90;;;;;;5010498;28;20007;-71
2023/01/19 07:14:51;;;;;;;;;;;4.00;99.90;;;;;;5029363;28;19972;-72
2023/01/19 07:17:17;;;;;;;;;;;4.00;99.90;;;;;;5025634;28;19975;-71
2023/01/19 07:19:43;;;;;;;;;;;3.90;99.90;;;;;;5011559;28;19933;-72
2023/01/19 07:22:08;;;;;;;;;;;3.80;99.90;;;;;;5031342;28;20296;-71
2023/01/19 07:24:34;;;;;;;;;;;3.80;99.90;;;;;;5025024;28;19925;-72
2023/01/19 07:27:00;;;;;;;;;;;3.70;99.90;;;;;;5028993;28;19927;-72
2023/01/19 07:29:25;;;;;;;;;;;4.80;99.90;;;;;;5014938;28;19932;-71
2023/01/19 07:31:53;;;;;;;;;;;3.50;99.90;;;;;;5030736;28;19925;-75
2023/01/19 07:34:19;;;;;;;;;;;4.70;99.90;;;;;;5012581;28;19928;-84
2023/01/19 07:36:44;;;;;;;;;;;3.70;99.90;;;;;;5012731;28;19921;-77
2023/01/19 07:39:10;;;;;;;;;;;3.70;99.90;;;;;;5032576;28;20004;-80
2023/01/19 07:41:35;;;;;;;;;;;5.50;99.90;;;;;;5030688;28;20002;-79
2023/01/19 07:44:01;;;;;;;;;;;3.70;99.90;;;;;;5031925;28;20284;-80
2023/01/19 07:46:26;;;;;;;;;;;3.70;99.90;;;;;;5027950;28;19921;-79
2023/01/19 07:48:52;;;;;;;;;;;4.60;99.90;;;;;;5032155;28;19921;-79
2023/01/19 07:51:17;;;;;;;;;;;3.60;99.90;;;;;;5031962;28;20372;-79
2023/01/19 07:53:44;;;;;;;;;;;5.20;99.90;;;;;;5030686;28;19925;-79
2023/01/19 07:56:12;;;;;;;;;;;3.60;99.90;;;;;;5031596;28;20368;-79
2023/01/19 07:58:38;;;;;;;;;;;3.50;99.90;;;;;;5032580;28;19921;-79
2023/01/19 08:01:08;;;;;;;;;;;4.80;99.90;;;;;;5032120;28;19928;-79
2023/01/19 08:03:36;;;;;;;;;;;3.50;99.90;;;;;;5032635;28;19976;-79
2023/01/19 08:06:05;;;;;;;;;;;3.50;99.90;;;;;;5014064;28;19976;-79
2023/01/19 08:08:31;;;;;;;;;;;3.50;99.90;;;;;;5028775;28;20007;-80
2023/01/19 08:10:57;;;;;;;;;;;3.80;99.90;;;;;;5015189;28;19921;-80
2023/01/19 08:13:26;;;;;;;;;;;3.40;99.90;;;;;;5031670;28;20352;-79
2023/01/19 08:15:52;;;;;;;;;;;6.00;99.90;;;;;;5015054;28;20023;-80
2023/01/19 08:18:21;;;;;;;;;;;3.50;99.90;;;;;;5014451;28;19917;-80
2023/01/19 08:20:50;;;;;;;;;;;3.30;99.90;;;;;;5013921;28;19979;-80
2023/01/19 08:23:16;;;;;;;;;;;3.50;99.90;;;;;;5014505;28;19922;-80
2023/01/19 08:25:45;;;;;;;;;;;5.10;99.90;;;;;;5032411;28;19956;-80
2023/01/19 08:28:12;;;;;;;;;;;3.40;99.90;;;;;;5031554;28;20343;-80
2023/01/19 08:30:39;;;;;;;;;;;3.50;99.90;;;;;;5032021;28;20372;-80
2023/01/19 08:33:07;;;;;;;;;;;6.00;99.90;;;;;;5031355;28;19921;-80
2023/01/19 08:35:33;;;;;;;;;;;4.00;99.90;;;;;;5010125;28;19921;-80
2023/01/19 08:38:02;;;;;;;;;;;3.50;99.90;;;;;;5032030;28;19932;-81
2023/01/19 08:40:29;;;;;;;;;;;3.10;99.90;;;;;;5013928;28;20378;-80
2023/01/19 08:43:03;;;;;;;;;;;3.60;99.90;;;;;;5013155;28;20329;-81
2023/01/19 08:45:29;;;;;;;;;;;3.90;99.90;;;;;;5032256;28;20292;-81
2023/01/19 08:47:57;;;;;;;;;;;4.50;99.90;;;;;;5014338;28;19968;-82
2023/01/19 08:50:24;;;;;;;;;;;5.70;99.90;;;;;;5033747;28;19928;-82
2023/01/19 08:52:49;;;;;;;;;;;5.90;99.90;;;;;;5035687;28;20303;-81
2023/01/19 08:55:15;;;;;;;;;;;6.20;99.90;;;;;;5028870;28;20032;-81
2023/01/19 08:57:41;;;;;;;;;;;6.80;99.90;;;;;;5033457;28;19948;-81
2023/01/19 09:00:08;;;;;;;;;;;8.00;99.90;;;;;;5016950;28;19920;-78
2023/01/19 09:02:36;;;;;;;;;;;7.60;99.90;;;;;;5017631;28;19921;-80
2023/01/19 09:05:03;;;;;;;;;;;7.60;99.90;;;;;;5036064;28;19949;-80
2023/01/19 09:07:29;;;;;;;;;;;8.20;99.90;;;;;;5034825;28;19921;-81
2023/01/19 09:09:54;;;;;;;;;;;9.00;99.90;;;;;;5031656;28;20020;-79
2023/01/19 09:12:20;;;;;;;;;;;8.90;99.90;;;;;;5011145;28;19979;-80
2023/01/19 09:14:45;;;;;;;;;;;8.40;99.90;;;;;;5030349;28;19974;-80
2023/01/19 09:17:13;;;;;;;;;;;7.80;99.90;;;;;;5034844;28;20387;-80
2023/01/19 09:19:39;;;;;;;;;;;7.20;99.90;;;;;;5036251;28;19921;-87
2023/01/19 09:22:08;;;;;;;;;;;9.00;99.90;;;;;;5036136;28;20011;-84
2023/01/19 09:24:33;;;;;;;;;;;7.00;99.90;;;;;;5017366;28;19978;-86
2023/01/19 09:26:59;;;;;;;;;;;8.60;99.90;;;;;;5017464;28;19997;-81
2023/01/19 09:29:25;;;;;;;;;;;9.30;99.90;;;;;;5027012;28;19921;-82
2023/01/19 09:32:00;;;;;;;;;;;10.30;99.90;;;;;;5019087;28;19940;-81
2023/01/19 09:34:30;;;;;;;;;;;13.10;99.90;;;;;;5039848;28;19921;-81
2023/01/19 09:36:56;;;;;;;;;;;12.10;99.90;;;;;;5021460;28;19921;-80
2023/01/19 09:39:21;;;;;;;;;;;12.40;99.90;;;;;;5039964;28;19928;-81
2023/01/19 09:41:56;;;;;;;;;;;13.20;99.90;;;;;;5040190;28;19975;-79
2023/01/19 09:44:27;;;;;;;;;;;14.00;99.90;;;;;;5036584;28;19932;-81
2023/01/19 09:46:52;;;;;;;;;;;14.80;98.60;;;;;;5040535;28;19935;-82
2023/01/19 09:49:32;;;;;;;;;;;15.20;95.30;;;;;;5021673;28;19956;-81
2023/01/19 09:51:58;;;;;;;;;;;15.80;95.40;;;;;;5035284;28;19921;-83
2023/01/19 09:54:28;;;;;;;;;;;16.20;93.90;;;;;;5025255;28;19924;-80
2023/01/19 09:56:54;;;;;;;;;;;16.40;92.70;;;;;;5026394;28;19984;-80
2023/01/19 09:59:29;;;;;;;;;;;16.80;92.30;;;;;;5042276;28;19967;-80
2023/01/19 10:01:58;;;;;;;;;;;16.60;91.70;;;;;;5040967;28;19984;-80
2023/01/19 10:04:29;;;;;;;;;;;16.60;90.60;;;;;;5024254;28;19987;-80
2023/01/19 10:07:05;;;;;;;;;;;16.80;90.20;;;;;;5035483;28;19916;-79
2023/01/19 10:09:39;;;;;;;;;;;16.40;90.00;;;;;;5019944;28;19939;-80
2023/01/19 10:12:08;;;;;;;;;;;16.30;89.20;;;;;;5018297;28;19928;-79
2023/01/19 10:28:13;;;;;;;;;;;17.70;82.80;;;;;;5096788;22;20391;-80
2023/01/19 10:31:08;;;;;;;;;;;16.10;83.40;;;;;;5026309;28;19967;-77
2023/01/19 10:33:40;;;;;;;;;;;15.50;82.30;;;;;;5029434;28;20400;-78
2023/01/19 10:36:14;;;;;;;;;;;17.40;84.20;;;;;;5029210;28;19979;-81
2023/01/19 10:38:39;;;;;;;;;;;17.10;83.50;;;;;;5034611;28;19921;-82
2023/01/19 10:41:09;;;;;;;;;;;18.00;84.40;;;;;;5020763;28;20537;-80
2023/01/19 10:43:40;;;;;;;;;;;18.30;84.60;;;;;;5024920;28;19930;-81
2023/01/19 10:46:07;;;;;;;;;;;18.40;80.30;;;;;;5025663;28;19921;-81
2023/01/19 10:48:40;;;;;;;;;;;18.70;77.00;;;;;;5026749;28;20015;-87
2023/01/19 10:51:07;;;;;;;;;;;18.90;78.90;;;;;;5036221;28;19921;-83
2023/01/19 10:53:33;;;;;;;;;;;18.70;78.80;;;;;;5034938;28;20030;-84
2023/01/19 10:56:09;;;;;;;;;;;18.60;78.00;;;;;;5033757;28;19925;-85
2023/01/19 10:58:35;;;;;;;;;;;18.80;78.60;;;;;;5036648;28;19929;-87
2023/01/19 11:01:14;;;;;;;;;;;19.10;79.10;;;;;;5032301;28;19925;-89
2023/01/19 11:03:45;;;;;;;;;;;18.90;78.60;;;;;;5031698;28;20040;-87
2023/01/19 11:06:14;;;;;;;;;;;18.80;79.30;;;;;;5036059;28;19927;-87
2023/01/19 11:08:40;;;;;;;;;;;18.90;80.50;;;;;;5028408;28;19929;-90
2023/01/19 11:11:08;;;;;;;;;;;18.80;80.10;;;;;;5036336;28;19921;-76
2023/01/19 11:13:37;;;;;;;;;;;18.40;79.80;;;;;;5035718;28;19943;-75
2023/01/19 11:16:07;;;;;;;;;;;17.90;83.40;;;;;;5033249;28;19943;-74
2023/01/19 11:18:37;;;;;;;;;;;18.00;80.70;;;;;;5035393;28;19932;-75
2023/01/19 11:21:05;;;;;;;;;;;17.60;78.20;;;;;;5034510;28;20000;-74
2023/01/19 11:23:33;;;;;;;;;;;16.90;80.30;;;;;;5032398;28;19964;-76
2023/01/19 11:26:00;;;;;;;;;;;16.20;81.60;;;;;;5032830;28;19960;-73
2023/01/19 11:28:41;;;;;;;;;;;15.10;82.10;;;;;;5033951;28;19928;-74
2023/01/19 11:31:09;;;;;;;;;;;14.30;85.40;;;;;;5024978;28;19945;-76
2023/01/19 11:33:44;;;;;;;;;;;13.10;85.50;;;;;;5040786;28;19921;-79
2023/01/19 11:36:36;;;;;;;;;;;12.90;88.90;;;;;;5034187;28;19921;-80
2023/01/19 11:39:11;;;;;;;;;;;12.70;90.10;;;;;;5030283;28;20031;-79
2023/01/19 11:41:37;;;;;;;;;;;11.90;90.90;;;;;;5045672;28;19920;-77
2023/01/19 11:44:13;;;;;;;;;;;11.60;91.30;;;;;;5034352;28;19920;-83
2023/01/19 11:46:40;;;;;;;;;;;10.60;92.60;;;;;;5035010;28;19921;-82
2023/01/19 11:49:14;;;;;;;;;;;9.80;93.50;;;;;;5042650;28;19975;-79
2023/01/19 11:51:45;;;;;;;;;;;9.60;94.70;;;;;;5033778;28;19992;-81
2023/01/19 11:54:22;;;;;;;;;;;9.50;95.80;;;;;;5050461;28;20414;-82
2023/01/19 11:56:48;;;;;;;;;;;8.70;96.90;;;;;;5037775;28;20395;-81
2023/01/19 11:59:13;;;;;;;;;;;8.70;98.20;;;;;;5045644;28;20004;-82
2023/01/19 12:01:47;;;;;;;;;;;9.80;99.90;;;;;;5032004;28;19952;-81
2023/01/19 12:04:23;;;;;;;;;;;7.90;99.90;;;;;;5048153;28;20006;-83
2023/01/19 12:06:53;;;;;;;;;;;7.50;99.90;;;;;;5051045;28;19928;-82
2023/01/19 12:09:41;;;;;;;;;;;7.20;99.90;;;;;;5048003;22;19929;-83
2023/01/19 12:15:54;;;;;;;;;;;4.80;99.90;;;;;;4955911;28;19922;-89
2023/01/19 12:23:47;;;;;;;;;;;6.40;99.90;;;;;;5045159;28;19920;-82
2023/01/19 12:26:28;;;;;;;;;;;6.30;99.90;;;;;;5048422;28;19921;-83
2023/01/19 12:28:57;;;;;;;;;;;6.20;99.90;;;;;;5030397;28;19921;-78
2023/01/19 12:31:23;;;;;;;;;;;6.40;99.90;;;;;;5030739;28;19936;-78
2023/01/19 12:33:49;;;;;;;;;;;7.10;99.90;;;;;;5032360;28;20300;-79
2023/01/19 12:36:31;;;;;;;;;;;6.40;99.90;;;;;;5031515;28;19925;-81
2023/01/19 12:39:17;;;;;;;;;;;6.50;99.90;;;;;;5047043;28;19928;-79
2023/01/19 12:41:44;;;;;;;;;;;6.40;99.90;;;;;;5020779;28;19928;-78
2023/01/19 12:44:10;;;;;;;;;;;6.40;99.90;;;;;;5051329;28;19920;-83
2023/01/19 12:46:37;;;;;;;;;;;6.60;99.90;;;;;;5028405;28;19928;-87
2023/01/19 12:49:23;;;;;;;;;;;6.70;99.90;;;;;;5053376;28;19983;-88
2023/01/19 12:51:49;;;;;;;;;;;6.10;99.90;;;;;;5038383;28;19929;-87
2023/01/19 12:54:27;;;;;;;;;;;6.20;99.90;;;;;;5045790;28;20357;-89
2023/01/19 12:56:56;;;;;;;;;;;6.10;99.90;;;;;;5022041;28;19925;-89
2023/01/19 12:59:28;;;;;;;;;;;7.00;99.90;;;;;;5041195;28;19921;-91
2023/01/19 13:02:12;;;;;;;;;;;7.80;99.90;;;;;;5041283;28;19921;-83
2023/01/19 13:04:38;;;;;;;;;;;9.20;99.90;;;;;;5031806;28;20020;-83
2023/01/19 13:07:16;;;;;;;;;;;10.30;99.90;;;;;;5047144;28;20337;-83
2023/01/19 13:09:42;;;;;;;;;;;10.60;99.90;;;;;;5046988;28;19920;-82
2023/01/19 13:12:14;;;;;;;;;;;10.20;99.90;;;;;;5030185;28;19954;-80
2023/01/19 13:14:43;;;;;;;;;;;9.50;99.90;;;;;;5056539;28;19975;-82
2023/01/19 13:17:25;;;;;;;;;;;9.40;99.90;;;;;;5058285;28;20055;-82
2023/01/19 13:20:04;;;;;;;;;;;10.20;99.90;;;;;;5045248;28;19921;-75
2023/01/19 13:22:46;;;;;;;;;;;10.70;99.90;;;;;;5033894;28;19921;-77
2023/01/19 13:25:12;;;;;;;;;;;11.40;99.90;;;;;;5032710;28;19921;-76
2023/01/19 13:27:39;;;;;;;;;;;12.00;99.80;;;;;;5046171;28;19960;-74
2023/01/19 13:30:09;;;;;;;;;;;12.30;99.20;;;;;;5022387;28;20277;-75
2023/01/19 13:35:28;;;;;;;;;;;12.40;96.40;;;;;;5019171;28;19996;-83
2023/01/19 13:38:04;;;;;;;;;;;12.10;97.30;;;;;;5005876;28;19925;-82
2023/01/19 13:40:50;;;;;;;;;;;10.30;97.20;;;;;;5004731;28;19928;-74
2023/01/19 13:45:59;;;;;;;;;;;11.70;98.60;;;;;;5149904;22;20402;-76
2023/01/19 13:48:25;;;;;;;;;;;10.90;98.10;;;;;;5035058;28;19936;-78
2023/01/19 13:50:58;;;;;;;;;;;10.60;98.60;;;;;;5034697;28;19924;-78
2023/01/19 13:53:26;;;;;;;;;;;10.30;99.00;;;;;;5034104;28;19925;-80
2023/01/19 13:56:08;;;;;;;;;;;9.80;99.90;;;;;;5058424;28;19920;-77
2023/01/19 13:58:33;;;;;;;;;;;9.50;99.90;;;;;;5061484;28;20389;-80
2023/01/19 14:00:59;;;;;;;;;;;9.40;99.90;;;;;;5045150;28;19952;-79
2023/01/19 14:03:25;;;;;;;;;;;9.10;99.90;;;;;;5062599;28;19924;-82
2023/01/19 14:05:51;;;;;;;;;;;9.20;99.90;;;;;;5062531;28;19920;-76
2023/01/19 14:08:18;;;;;;;;;;;8.40;99.90;;;;;;5057764;28;19924;-79
2023/01/19 14:10:52;;;;;;;;;;;8.10;99.90;;;;;;5053616;28;19928;-79
2023/01/19 14:13:18;;;;;;;;;;;7.90;99.90;;;;;;5023427;28;19925;-80
2023/01/19 14:15:45;;;;;;;;;;;7.70;99.90;;;;;;5061465;28;19924;-81
2023/01/19 14:18:13;;;;;;;;;;;7.70;99.90;;;;;;5059834;28;19920;-80
2023/01/19 14:20:39;;;;;;;;;;;7.50;99.90;;;;;;5043092;28;19970;-81
2023/01/19 14:23:05;;;;;;;;;;;7.60;99.90;;;;;;5065135;28;19921;-80
2023/01/19 14:25:32;;;;;;;;;;;7.50;99.90;;;;;;5037149;28;19931;-81
2023/01/19 14:28:17;;;;;;;;;;;7.80;99.90;;;;;;5056883;28;19935;-80
2023/01/19 14:30:53;;;;;;;;;;;7.20;99.90;;;;;;5058287;28;19957;-81
2023/01/19 14:33:31;;;;;;;;;;;7.00;99.90;;;;;;5057811;28;19920;-81
2023/01/19 14:36:07;;;;;;;;;;;6.80;99.90;;;;;;5033606;28;20399;-81
2023/01/19 14:38:33;;;;;;;;;;;6.60;99.90;;;;;;5024015;28;19917;-80
2023/01/19 14:41:01;;;;;;;;;;;6.80;99.90;;;;;;5054224;28;20077;-80
2023/01/19 14:43:28;;;;;;;;;;;6.10;99.90;;;;;;5025065;28;20008;-96
2023/01/19 14:45:55;;;;;;;;;;;6.40;99.90;;;;;;5037293;28;19921;-91
2023/01/19 14:48:21;;;;;;;;;;;6.90;99.90;;;;;;5024573;28;19921;-87
2023/01/19 14:50:49;;;;;;;;;;;5.70;99.90;;;;;;5039055;28;19928;-82
2023/01/19 14:53:20;;;;;;;;;;;5.60;99.90;;;;;;5021341;28;19925;-85
2023/01/19 14:55:48;;;;;;;;;;;5.50;99.90;;;;;;5019754;28;19925;-87
2023/01/19 14:58:15;;;;;;;;;;;5.50;99.90;;;;;;5042680;28;19921;-91
2023/01/19 15:00:41;;;;;;;;;;;5.40;99.90;;;;;;5035363;28;19921;-87
2023/01/19 15:03:08;;;;;;;;;;;5.30;99.90;;;;;;5015547;28;19921;-91
2023/01/19 15:05:44;;;;;;;;;;;5.20;99.90;;;;;;5027180;28;20022;-88
2023/01/19 15:08:14;;;;;;;;;;;5.30;99.90;;;;;;5037454;28;19952;-86
2023/01/19 15:10:40;;;;;;;;;;;5.20;99.90;;;;;;5039884;28;19928;-93
2023/01/19 15:13:05;;;;;;;;;;;5.30;99.90;;;;;;5036440;28;19925;-84